Bay Port, New York
Current Conditions -  °F | °C
As of 12:56 PM on Wednesday 28 Jan 2015 (Local Time) from KISP Reporting Station
Scattered Clouds Scattered Clouds  
Wind Chill: 11°   Ceiling: Unl
Heat Index: 25°   Visibility: 10mi
Dew Point: 10°   Wind: 20mph
Humidity: 53%   Direction: 340°NNW
Pressure: 30.01"   Gusts: 33mph
Location:  40.746°N, 73.0539°W
Report Text: KISP 281756Z 34017G29KT 10SM SCT120 M04/M12 A3001 RMK AO2 PK WND 34030/1736 SLP162 4/023 933023 T10391122 11039 21078 50002
Loading
Personal Weather Stations






























Interactive Weather Map New forecast layout! Learn more

10-Day Weather Forecast

Advertisements
Track Severe Weather on mobile